PWSweather.com
Personal Weather Stations
Station Observations
SD92115WX
El Cerrito Stoneybluff, San Diego, CA 92115

El Cerrito StoneybluffSan Diego, CA 92115

Lat: 32.754096, Lon: -117.066705

Elevation: 420

Station Type: Davis Vantage Vue

http://stoneybluff.com

High Low Average
Temperature 57.6°F14.2°C 42.6°F5.9°C 50.4°F10.2°C
Dew Point 50.0°F10.0°C 41.5°F5.3°C 45.5°F7.5°C
Winds 10.3 mph 16.6 kmh Calm Calm 1.0 mph S1.6 kmh S
Wind Gusts 15.9 mph25.6 kmh -- 3.0 mph4.8 kmh
Humidity 97% 61% 84%
Pressure 30.01 in1016.3 mb 29.82 in1009.8 mb -
Precipitation 0.02 in0.5 mm - -
Hour Temp Dew Point Humidity Winds Wind Gusts Pressure Precip Precip Rate Daily Precip Total
12:04 AM 48.6°F9.2°C 46.9°F8.3°C 94% Calm Calm -- 29.83 in1010.2 mb 0.02 in0.5 mm 0.30 in7.6 mm 0.02 in0.5 mm
12:09 AM 48.6°F9.2°C 46.9°F8.3°C 94% Calm Calm -- 29.83 in1010.2 mb 0.01 in0.3 mm 0.00 in0.0 mm 0.02 in0.5 mm
12:14 AM 48.4°F9.1°C 46.8°F8.2°C 94% Calm Calm -- 29.83 in1010.2 mb 0.01 in0.3 mm 0.00 in0.0 mm 0.02 in0.5 mm
12:19 AM 48.4°F9.1°C 46.8°F8.2°C 94% Calm Calm -- 29.83 in1010.2 mb 0.01 in0.3 mm 0.00 in0.0 mm 0.02 in0.5 mm
12:24 AM 48.4°F9.1°C 46.8°F8.2°C 94% Calm Calm -- 29.83 in1010.2 mb 0.01 in0.3 mm 0.00 in0.0 mm 0.02 in0.5 mm
12:29 AM 48.2°F9.0°C 46.6°F8.1°C 94% Calm Calm -- 29.83 in1010.2 mb 0.01 in0.3 mm 0.00 in0.0 mm 0.02 in0.5 mm
12:34 AM 48.0°F8.9°C 46.4°F8.0°C 94% Calm Calm -- 29.83 in1010.2 mb 0.00 in0.0 mm 0.00 in0.0 mm 0.02 in0.5 mm
12:39 AM 48.0°F8.9°C 46.4°F8.0°C 94% Calm Calm -- 29.83 in1010.2 mb 0.00 in0.0 mm 0.00 in0.0 mm 0.02 in0.5 mm
12:44 AM 48.0°F8.9°C 46.6°F8.1°C 95% Calm Calm -- 29.83 in1010.2 mb 0.00 in0.0 mm 0.00 in0.0 mm 0.02 in0.5 mm
12:49 AM 48.4°F9.1°C 46.9°F8.3°C 95% 0.2 mph N0.3 kmh N 1.1 mph1.8 kmh 29.83 in1010.2 mb 0.00 in0.0 mm 0.00 in0.0 mm 0.02 in0.5 mm
12:54 AM 48.4°F9.1°C 46.9°F8.3°C 95% Calm Calm 2.0 mph3.2 kmh 29.83 in1010.2 mb 0.00 in0.0 mm 0.00 in0.0 mm 0.02 in0.5 mm
12:59 AM 48.2°F9.0°C 46.6°F8.1°C 94% Calm Calm -- 29.83 in1010.2 mb 0.00 in0.0 mm 0.00 in0.0 mm 0.02 in0.5 mm
01:04 AM 48.2°F9.0°C 46.6°F8.1°C 94% Calm Calm -- 29.83 in1010.2 mb 0.00 in0.0 mm 0.00 in0.0 mm 0.02 in0.5 mm
01:09 AM 48.0°F8.9°C 46.4°F8.0°C 94% Calm Calm -- 29.83 in1010.2 mb 0.00 in0.0 mm 0.00 in0.0 mm 0.02 in0.5 mm
01:14 AM 47.8°F8.8°C 46.2°F7.9°C 94% Calm Calm -- 29.83 in1010.2 mb 0.00 in0.0 mm 0.00 in0.0 mm 0.02 in0.5 mm
01:19 AM 47.7°F8.7°C 46.0°F7.8°C 94% Calm Calm -- 29.83 in1010.2 mb 0.00 in0.0 mm 0.00 in0.0 mm 0.02 in0.5 mm
01:24 AM 47.7°F8.7°C 46.0°F7.8°C 94% Calm Calm -- 29.83 in1010.2 mb 0.00 in0.0 mm 0.00 in0.0 mm 0.02 in0.5 mm
01:29 AM 47.5°F8.6°C 45.9°F7.7°C 94% Calm Calm -- 29.82 in1009.8 mb 0.01 in0.3 mm 0.12 in3.0 mm 0.01 in0.3 mm
01:34 AM 47.3°F8.5°C 45.7°F7.6°C 94% Calm Calm -- 29.83 in1010.2 mb 0.01 in0.3 mm 0.00 in0.0 mm 0.01 in0.3 mm
01:39 AM 47.1°F8.4°C 45.7°F7.6°C 95% Calm Calm -- 29.83 in1010.2 mb 0.01 in0.3 mm 0.00 in0.0 mm 0.01 in0.3 mm
01:44 AM 46.9°F8.3°C 45.5°F7.5°C 95% Calm Calm -- 29.83 in1010.2 mb 0.01 in0.3 mm 0.00 in0.0 mm 0.01 in0.3 mm
01:49 AM 46.9°F8.3°C 45.5°F7.5°C 95% Calm Calm -- 29.82 in1009.8 mb 0.01 in0.3 mm 0.00 in0.0 mm 0.01 in0.3 mm
01:54 AM 46.8°F8.2°C 45.3°F7.4°C 95% Calm Calm -- 29.83 in1010.2 mb 0.01 in0.3 mm 0.00 in0.0 mm 0.01 in0.3 mm
01:59 AM 46.6°F8.1°C 45.1°F7.3°C 95% Calm Calm -- 29.82 in1009.8 mb 0.01 in0.3 mm 0.00 in0.0 mm 0.01 in0.3 mm
02:04 AM 46.6°F8.1°C 45.1°F7.3°C 95% Calm Calm -- 29.83 in1010.2 mb 0.01 in0.3 mm 0.00 in0.0 mm 0.01 in0.3 mm
02:09 AM 46.4°F8.0°C 45.0°F7.2°C 95% Calm Calm -- 29.83 in1010.2 mb 0.01 in0.3 mm 0.00 in0.0 mm 0.01 in0.3 mm
02:14 AM 46.4°F8.0°C 45.0°F7.2°C 95% Calm Calm -- 29.83 in1010.2 mb 0.01 in0.3 mm 0.00 in0.0 mm 0.01 in0.3 mm
02:19 AM 46.4°F8.0°C 45.0°F7.2°C 95% Calm Calm -- 29.83 in1010.2 mb 0.01 in0.3 mm 0.00 in0.0 mm 0.01 in0.3 mm
02:24 AM 46.6°F8.1°C 45.1°F7.3°C 95% Calm Calm -- 29.83 in1010.2 mb 0.01 in0.3 mm 0.00 in0.0 mm 0.01 in0.3 mm
02:29 AM 46.6°F8.1°C 45.1°F7.3°C 95% Calm Calm -- 29.83 in1010.2 mb 0.00 in0.0 mm 0.00 in0.0 mm 0.01 in0.3 mm
02:34 AM 46.6°F8.1°C 45.1°F7.3°C 95% Calm Calm -- 29.84 in1010.5 mb 0.00 in0.0 mm 0.00 in0.0 mm 0.01 in0.3 mm
02:39 AM 46.6°F8.1°C 45.1°F7.3°C 95% Calm Calm -- 29.84 in1010.5 mb 0.00 in0.0 mm 0.00 in0.0 mm 0.01 in0.3 mm
02:44 AM 46.8°F8.2°C 45.3°F7.4°C 95% Calm Calm -- 29.84 in1010.5 mb 0.00 in0.0 mm 0.00 in0.0 mm 0.01 in0.3 mm
02:49 AM 46.9°F8.3°C 45.9°F7.7°C 96% Calm Calm -- 29.84 in1010.5 mb 0.00 in0.0 mm 0.00 in0.0 mm 0.01 in0.3 mm
02:54 AM 46.8°F8.2°C 45.3°F7.4°C 95% Calm Calm -- 29.84 in1010.5 mb 0.00 in0.0 mm 0.00 in0.0 mm 0.01 in0.3 mm
02:59 AM 46.8°F8.2°C 45.3°F7.4°C 95% Calm Calm -- 29.84 in1010.5 mb 0.00 in0.0 mm 0.00 in0.0 mm 0.01 in0.3 mm
03:04 AM 46.8°F8.2°C 45.3°F7.4°C 95% Calm Calm -- 29.84 in1010.5 mb 0.00 in0.0 mm 0.00 in0.0 mm 0.01 in0.3 mm
03:09 AM 46.6°F8.1°C 45.1°F7.3°C 95% Calm Calm -- 29.84 in1010.5 mb 0.00 in0.0 mm 0.00 in0.0 mm 0.01 in0.3 mm
03:14 AM 46.8°F8.2°C 45.3°F7.4°C 95% Calm Calm -- 29.84 in1010.5 mb 0.00 in0.0 mm 0.00 in0.0 mm 0.01 in0.3 mm
03:19 AM 46.6°F8.1°C 45.1°F7.3°C 95% Calm Calm -- 29.84 in1010.5 mb 0.00 in0.0 mm 0.00 in0.0 mm 0.01 in0.3 mm
03:24 AM 46.6°F8.1°C 45.1°F7.3°C 95% Calm Calm -- 29.84 in1010.5 mb 0.00 in0.0 mm 0.00 in0.0 mm 0.01 in0.3 mm
03:29 AM 46.6°F8.1°C 45.5°F7.5°C 96% Calm Calm -- 29.83 in1010.2 mb 0.00 in0.0 mm 0.00 in0.0 mm 0.01 in0.3 mm
03:34 AM 46.6°F8.1°C 45.5°F7.5°C 96% Calm Calm -- 29.83 in1010.2 mb 0.00 in0.0 mm 0.00 in0.0 mm 0.01 in0.3 mm
03:39 AM 46.6°F8.1°C 45.5°F7.5°C 96% Calm Calm -- 29.83 in1010.2 mb 0.00 in0.0 mm 0.00 in0.0 mm 0.01 in0.3 mm
03:44 AM 46.6°F8.1°C 45.5°F7.5°C 96% Calm Calm -- 29.83 in1010.2 mb 0.00 in0.0 mm 0.00 in0.0 mm 0.01 in0.3 mm
03:49 AM 46.2°F7.9°C 44.8°F7.1°C 95% Calm Calm -- 29.83 in1010.2 mb 0.00 in0.0 mm 0.00 in0.0 mm 0.01 in0.3 mm
03:54 AM 46.0°F7.8°C 44.6°F7.0°C 95% Calm Calm -- 29.83 in1010.2 mb 0.00 in0.0 mm 0.00 in0.0 mm 0.01 in0.3 mm
03:59 AM 45.9°F7.7°C 44.4°F6.9°C 95% Calm Calm -- 29.84 in1010.5 mb 0.00 in0.0 mm 0.00 in0.0 mm 0.01 in0.3 mm
04:04 AM 45.9°F7.7°C 44.4°F6.9°C 95% Calm Calm -- 29.84 in1010.5 mb 0.00 in0.0 mm 0.00 in0.0 mm 0.01 in0.3 mm
04:09 AM 45.5°F7.5°C 44.2°F6.8°C 95% Calm Calm -- 29.84 in1010.5 mb 0.00 in0.0 mm 0.00 in0.0 mm 0.01 in0.3 mm
04:14 AM 45.5°F7.5°C 44.4°F6.9°C 96% Calm Calm -- 29.83 in1010.2 mb 0.00 in0.0 mm 0.00 in0.0 mm 0.01 in0.3 mm
04:19 AM 45.5°F7.5°C 44.4°F6.9°C 96% Calm Calm -- 29.84 in1010.5 mb 0.00 in0.0 mm 0.00 in0.0 mm 0.01 in0.3 mm
04:24 AM 45.7°F7.6°C 44.6°F7.0°C 96% Calm Calm -- 29.84 in1010.5 mb 0.00 in0.0 mm 0.00 in0.0 mm 0.01 in0.3 mm
04:29 AM 46.0°F7.8°C 45.0°F7.2°C 96% Calm Calm -- 29.83 in1010.2 mb 0.00 in0.0 mm 0.00 in0.0 mm 0.01 in0.3 mm
04:34 AM 46.0°F7.8°C 45.0°F7.2°C 96% Calm Calm -- 29.83 in1010.2 mb 0.00 in0.0 mm 0.00 in0.0 mm 0.01 in0.3 mm
04:39 AM 46.0°F7.8°C 45.0°F7.2°C 96% Calm Calm -- 29.84 in1010.5 mb 0.00 in0.0 mm 0.00 in0.0 mm 0.01 in0.3 mm
04:44 AM 46.0°F7.8°C 45.0°F7.2°C 96% Calm Calm -- 29.84 in1010.5 mb 0.00 in0.0 mm 0.00 in0.0 mm 0.01 in0.3 mm
04:49 AM 46.0°F7.8°C 45.0°F7.2°C 96% Calm Calm -- 29.84 in1010.5 mb 0.00 in0.0 mm 0.00 in0.0 mm 0.01 in0.3 mm
04:54 AM 45.9°F7.7°C 44.8°F7.1°C 96% Calm Calm -- 29.83 in1010.2 mb 0.00 in0.0 mm 0.00 in0.0 mm 0.01 in0.3 mm
04:59 AM 45.9°F7.7°C 44.8°F7.1°C 96% Calm Calm -- 29.84 in1010.5 mb 0.00 in0.0 mm 0.00 in0.0 mm 0.01 in0.3 mm
05:04 AM 45.7°F7.6°C 44.6°F7.0°C 96% Calm Calm -- 29.84 in1010.5 mb 0.00 in0.0 mm 0.00 in0.0 mm 0.01 in0.3 mm
05:09 AM 45.3°F7.4°C 44.2°F6.8°C 96% Calm Calm -- 29.85 in1010.8 mb 0.00 in0.0 mm 0.00 in0.0 mm 0.01 in0.3 mm
05:14 AM 45.1°F7.3°C 44.1°F6.7°C 96% Calm Calm -- 29.85 in1010.8 mb 0.00 in0.0 mm 0.00 in0.0 mm 0.01 in0.3 mm
05:19 AM 45.0°F7.2°C 43.9°F6.6°C 96% Calm Calm -- 29.85 in1010.8 mb 0.00 in0.0 mm 0.00 in0.0 mm 0.01 in0.3 mm
05:24 AM 45.0°F7.2°C 43.9°F6.6°C 96% Calm Calm -- 29.85 in1010.8 mb 0.00 in0.0 mm 0.00 in0.0 mm 0.01 in0.3 mm
05:29 AM 44.8°F7.1°C 43.7°F6.5°C 96% Calm Calm -- 29.85 in1010.8 mb 0.00 in0.0 mm 0.00 in0.0 mm 0.01 in0.3 mm
05:34 AM 44.6°F7.0°C 43.5°F6.4°C 96% Calm Calm -- 29.85 in1010.8 mb 0.00 in0.0 mm 0.00 in0.0 mm 0.01 in0.3 mm
05:39 AM 44.6°F7.0°C 43.5°F6.4°C 96% Calm Calm -- 29.85 in1010.8 mb 0.00 in0.0 mm 0.00 in0.0 mm 0.01 in0.3 mm
05:44 AM 44.4°F6.9°C 43.3°F6.3°C 96% Calm Calm -- 29.86 in1011.2 mb 0.00 in0.0 mm 0.00 in0.0 mm 0.01 in0.3 mm
05:49 AM 44.2°F6.8°C 43.2°F6.2°C 96% Calm Calm -- 29.86 in1011.2 mb 0.00 in0.0 mm 0.00 in0.0 mm 0.01 in0.3 mm
05:54 AM 44.1°F6.7°C 43.0°F6.1°C 96% Calm Calm -- 29.86 in1011.2 mb 0.00 in0.0 mm 0.00 in0.0 mm 0.01 in0.3 mm
05:59 AM 43.9°F6.6°C 42.8°F6.0°C 96% Calm Calm -- 29.86 in1011.2 mb 0.00 in0.0 mm 0.00 in0.0 mm 0.01 in0.3 mm
06:04 AM 43.9°F6.6°C 42.8°F6.0°C 96% Calm Calm -- 29.87 in1011.5 mb 0.00 in0.0 mm 0.00 in0.0 mm 0.01 in0.3 mm
06:09 AM 43.9°F6.6°C 42.8°F6.0°C 96% Calm Calm -- 29.87 in1011.5 mb 0.00 in0.0 mm 0.00 in0.0 mm 0.01 in0.3 mm
06:14 AM 43.9°F6.6°C 42.8°F6.0°C 96% Calm Calm -- 29.87 in1011.5 mb 0.00 in0.0 mm 0.00 in0.0 mm 0.01 in0.3 mm
06:19 AM 43.9°F6.6°C 42.8°F6.0°C 96% Calm Calm -- 29.87 in1011.5 mb 0.00 in0.0 mm 0.00 in0.0 mm 0.01 in0.3 mm
06:24 AM 43.9°F6.6°C 42.8°F6.0°C 96% Calm Calm -- 29.87 in1011.5 mb 0.00 in0.0 mm 0.00 in0.0 mm 0.01 in0.3 mm
06:29 AM 43.9°F6.6°C 42.8°F6.0°C 96% Calm Calm -- 29.88 in1011.9 mb 0.00 in0.0 mm 0.00 in0.0 mm 0.01 in0.3 mm
06:34 AM 43.7°F6.5°C 42.6°F5.9°C 96% Calm Calm -- 29.87 in1011.5 mb 0.00 in0.0 mm 0.00 in0.0 mm 0.01 in0.3 mm
06:39 AM 43.5°F6.4°C 42.4°F5.8°C 96% Calm Calm -- 29.88 in1011.9 mb 0.00 in0.0 mm 0.00 in0.0 mm 0.01 in0.3 mm
06:44 AM 43.2°F6.2°C 42.1°F5.6°C 96% Calm Calm -- 29.88 in1011.9 mb 0.00 in0.0 mm 0.00 in0.0 mm 0.01 in0.3 mm
06:49 AM 43.0°F6.1°C 41.9°F5.5°C 96% Calm Calm -- 29.87 in1011.5 mb 0.00 in0.0 mm 0.00 in0.0 mm 0.01 in0.3 mm
06:54 AM 43.0°F6.1°C 41.9°F5.5°C 96% Calm Calm -- 29.87 in1011.5 mb 0.00 in0.0 mm 0.00 in0.0 mm 0.01 in0.3 mm
06:59 AM 43.0°F6.1°C 41.9°F5.5°C 96% Calm Calm -- 29.87 in1011.5 mb 0.00 in0.0 mm 0.00 in0.0 mm 0.01 in0.3 mm
07:04 AM 42.8°F6.0°C 41.7°F5.4°C 96% Calm Calm -- 29.87 in1011.5 mb 0.00 in0.0 mm 0.00 in0.0 mm 0.01 in0.3 mm
07:09 AM 42.8°F6.0°C 41.7°F5.4°C 96% Calm Calm -- 29.87 in1011.5 mb 0.00 in0.0 mm 0.00 in0.0 mm 0.01 in0.3 mm
07:14 AM 42.6°F5.9°C 41.5°F5.3°C 96% Calm Calm -- 29.88 in1011.9 mb 0.00 in0.0 mm 0.00 in0.0 mm 0.01 in0.3 mm
07:19 AM 42.6°F5.9°C 41.5°F5.3°C 96% Calm Calm -- 29.88 in1011.9 mb 0.00 in0.0 mm 0.00 in0.0 mm 0.02 in0.5 mm
07:24 AM 43.2°F6.2°C 42.4°F5.8°C 97% Calm Calm -- 29.88 in1011.9 mb 0.01 in0.3 mm 0.12 in3.0 mm 0.02 in0.5 mm
07:29 AM 43.5°F6.4°C 42.8°F6.0°C 97% Calm Calm -- 29.88 in1011.9 mb 0.01 in0.3 mm 0.00 in0.0 mm 0.02 in0.5 mm
07:34 AM 43.7°F6.5°C 43.0°F6.1°C 97% Calm Calm -- 29.88 in1011.9 mb 0.01 in0.3 mm 0.00 in0.0 mm 0.02 in0.5 mm
07:39 AM 43.9°F6.6°C 43.2°F6.2°C 97% Calm Calm -- 29.89 in1012.2 mb 0.01 in0.3 mm 0.00 in0.0 mm 0.02 in0.5 mm
07:44 AM 44.1°F6.7°C 43.3°F6.3°C 97% Calm Calm -- 29.89 in1012.2 mb 0.01 in0.3 mm 0.00 in0.0 mm 0.02 in0.5 mm
07:49 AM 44.4°F6.9°C 43.7°F6.5°C 97% Calm Calm -- 29.89 in1012.2 mb 0.01 in0.3 mm 0.00 in0.0 mm 0.02 in0.5 mm
07:54 AM 44.8°F7.1°C 44.1°F6.7°C 97% Calm Calm -- 29.89 in1012.2 mb 0.01 in0.3 mm 0.00 in0.0 mm 0.02 in0.5 mm
07:59 AM 45.7°F7.6°C 45.0°F7.2°C 97% Calm Calm -- 29.89 in1012.2 mb 0.01 in0.3 mm 0.00 in0.0 mm 0.02 in0.5 mm
08:04 AM 46.0°F7.8°C 45.3°F7.4°C 97% Calm Calm -- 29.90 in1012.5 mb 0.01 in0.3 mm 0.00 in0.0 mm 0.02 in0.5 mm
08:09 AM 46.8°F8.2°C 46.0°F7.8°C 97% Calm Calm -- 29.90 in1012.5 mb 0.01 in0.3 mm 0.00 in0.0 mm 0.02 in0.5 mm
08:14 AM 47.1°F8.4°C 46.4°F8.0°C 97% Calm Calm -- 29.90 in1012.5 mb 0.01 in0.3 mm 0.00 in0.0 mm 0.02 in0.5 mm
08:19 AM 47.3°F8.5°C 46.6°F8.1°C 97% Calm Calm -- 29.90 in1012.5 mb 0.01 in0.3 mm 0.00 in0.0 mm 0.02 in0.5 mm
08:24 AM 47.7°F8.7°C 46.9°F8.3°C 97% Calm Calm -- 29.91 in1012.9 mb 0.00 in0.0 mm 0.00 in0.0 mm 0.02 in0.5 mm
08:29 AM 48.0°F8.9°C 47.1°F8.4°C 97% Calm Calm 1.1 mph1.8 kmh 29.91 in1012.9 mb 0.00 in0.0 mm 0.00 in0.0 mm 0.02 in0.5 mm
08:34 AM 48.0°F8.9°C 47.1°F8.4°C 97% Calm Calm 2.0 mph3.2 kmh 29.91 in1012.9 mb 0.00 in0.0 mm 0.00 in0.0 mm 0.02 in0.5 mm
08:39 AM 48.6°F9.2°C 47.7°F8.7°C 97% Calm Calm 1.1 mph1.8 kmh 29.91 in1012.9 mb 0.00 in0.0 mm 0.00 in0.0 mm 0.02 in0.5 mm
08:44 AM 48.7°F9.3°C 47.8°F8.8°C 97% Calm Calm 1.1 mph1.8 kmh 29.91 in1012.9 mb 0.00 in0.0 mm 0.00 in0.0 mm 0.02 in0.5 mm
08:49 AM 49.1°F9.5°C 48.0°F8.9°C 96% Calm Calm 1.1 mph1.8 kmh 29.91 in1012.9 mb 0.00 in0.0 mm 0.00 in0.0 mm 0.02 in0.5 mm
08:54 AM 49.5°F9.7°C 48.4°F9.1°C 96% Calm Calm 1.1 mph1.8 kmh 29.91 in1012.9 mb 0.00 in0.0 mm 0.00 in0.0 mm 0.02 in0.5 mm
08:59 AM 49.6°F9.8°C 48.6°F9.2°C 96% 0.2 mph SE0.3 kmh SE 2.0 mph3.2 kmh 29.92 in1013.2 mb 0.00 in0.0 mm 0.00 in0.0 mm 0.02 in0.5 mm
09:04 AM 50.2°F10.1°C 49.1°F9.5°C 96% Calm Calm 1.1 mph1.8 kmh 29.92 in1013.2 mb 0.00 in0.0 mm 0.00 in0.0 mm 0.02 in0.5 mm
09:09 AM 50.4°F10.2°C 49.3°F9.6°C 96% Calm Calm 1.1 mph1.8 kmh 29.92 in1013.2 mb 0.00 in0.0 mm 0.00 in0.0 mm 0.02 in0.5 mm
09:19 AM 50.9°F10.5°C 49.5°F9.7°C 95% Calm Calm 2.0 mph3.2 kmh 29.92 in1013.2 mb 0.00 in0.0 mm 0.00 in0.0 mm 0.02 in0.5 mm
09:24 AM 51.4°F10.8°C 50.0°F10.0°C 95% 0.2 mph SW0.3 kmh SW 1.1 mph1.8 kmh 29.92 in1013.2 mb 0.00 in0.0 mm 0.00 in0.0 mm 0.02 in0.5 mm
09:29 AM 51.4°F10.8°C 49.5°F9.7°C 93% 1.3 mph SW2.1 kmh SW 3.1 mph5.0 kmh 29.92 in1013.2 mb 0.00 in0.0 mm 0.00 in0.0 mm 0.02 in0.5 mm
09:34 AM 51.4°F10.8°C 49.3°F9.6°C 92% 0.9 mph S1.4 kmh S 2.0 mph3.2 kmh 29.92 in1013.2 mb 0.00 in0.0 mm 0.00 in0.0 mm 0.02 in0.5 mm
09:39 AM 51.6°F10.9°C 49.5°F9.7°C 92% 0.2 mph SW0.3 kmh SW 2.0 mph3.2 kmh 29.93 in1013.5 mb 0.00 in0.0 mm 0.00 in0.0 mm 0.02 in0.5 mm
09:44 AM 52.0°F11.1°C 49.1°F9.5°C 90% 0.7 mph SSW1.1 kmh SSW 2.0 mph3.2 kmh 29.93 in1013.5 mb 0.00 in0.0 mm 0.00 in0.0 mm 0.02 in0.5 mm
09:49 AM 52.2°F11.2°C 48.7°F9.3°C 88% 0.7 mph WSW1.1 kmh WSW 2.0 mph3.2 kmh 29.93 in1013.5 mb 0.00 in0.0 mm 0.00 in0.0 mm 0.02 in0.5 mm
09:54 AM 52.7°F11.5°C 49.3°F9.6°C 88% Calm Calm 1.1 mph1.8 kmh 29.93 in1013.5 mb 0.00 in0.0 mm 0.00 in0.0 mm 0.02 in0.5 mm
09:59 AM 53.2°F11.8°C 49.1°F9.5°C 86% 0.7 mph SSW1.1 kmh SSW 2.0 mph3.2 kmh 29.93 in1013.5 mb 0.00 in0.0 mm 0.00 in0.0 mm 0.02 in0.5 mm
10:04 AM 53.8°F12.1°C 48.7°F9.3°C 83% 0.7 mph SSW1.1 kmh SSW 2.0 mph3.2 kmh 29.93 in1013.5 mb 0.00 in0.0 mm 0.00 in0.0 mm 0.02 in0.5 mm
10:09 AM 53.8°F12.1°C 47.8°F8.8°C 80% 0.4 mph NE0.6 kmh NE 2.0 mph3.2 kmh 29.93 in1013.5 mb 0.00 in0.0 mm 0.00 in0.0 mm 0.02 in0.5 mm
10:14 AM 54.3°F12.4°C 48.6°F9.2°C 81% 0.7 mph SSW1.1 kmh SSW 2.0 mph3.2 kmh 29.93 in1013.5 mb 0.00 in0.0 mm 0.00 in0.0 mm 0.02 in0.5 mm
10:19 AM 54.1°F12.3°C 46.4°F8.0°C 75% 0.7 mph ENE1.1 kmh ENE 3.1 mph5.0 kmh 29.93 in1013.5 mb 0.00 in0.0 mm 0.00 in0.0 mm 0.02 in0.5 mm
10:24 AM 54.3°F12.4°C 46.9°F8.3°C 76% 1.6 mph SSE2.6 kmh SSE 3.1 mph5.0 kmh 29.93 in1013.5 mb 0.00 in0.0 mm 0.00 in0.0 mm 0.02 in0.5 mm
10:29 AM 55.0°F12.8°C 48.4°F9.1°C 78% 1.3 mph SW2.1 kmh SW 4.3 mph6.9 kmh 29.93 in1013.5 mb 0.00 in0.0 mm 0.00 in0.0 mm 0.02 in0.5 mm
10:34 AM 55.8°F13.2°C 48.7°F9.3°C 77% 0.4 mph SW0.6 kmh SW 3.1 mph5.0 kmh 29.93 in1013.5 mb 0.00 in0.0 mm 0.00 in0.0 mm 0.02 in0.5 mm
10:39 AM 55.8°F13.2°C 48.0°F8.9°C 75% 1.1 mph SSE1.8 kmh SSE 4.3 mph6.9 kmh 29.93 in1013.5 mb 0.00 in0.0 mm 0.00 in0.0 mm 0.02 in0.5 mm
10:44 AM 55.4°F13.0°C 46.9°F8.3°C 73% 1.3 mph SW2.1 kmh SW 5.4 mph8.7 kmh 29.93 in1013.5 mb 0.00 in0.0 mm 0.00 in0.0 mm 0.02 in0.5 mm
10:49 AM 55.6°F13.1°C 47.5°F8.6°C 74% 2.2 mph SSW3.5 kmh SSW 6.3 mph10.1 kmh 29.91 in1012.9 mb 0.00 in0.0 mm 0.00 in0.0 mm 0.02 in0.5 mm
10:54 AM 55.6°F13.1°C 46.8°F8.2°C 72% 2.5 mph SE4.0 kmh SE 4.3 mph6.9 kmh 29.91 in1012.9 mb 0.00 in0.0 mm 0.00 in0.0 mm 0.02 in0.5 mm
10:59 AM 55.4°F13.0°C 46.6°F8.1°C 72% 2.5 mph SSW4.0 kmh SSW 7.4 mph11.9 kmh 29.91 in1012.9 mb 0.00 in0.0 mm 0.00 in0.0 mm 0.02 in0.5 mm
11:04 AM 55.8°F13.2°C 47.7°F8.7°C 74% 0.2 mph E0.3 kmh E 3.1 mph5.0 kmh 29.91 in1012.9 mb 0.00 in0.0 mm 0.00 in0.0 mm 0.02 in0.5 mm
11:09 AM 55.8°F13.2°C 46.9°F8.3°C 72% 0.2 mph SSW0.3 kmh SSW 2.0 mph3.2 kmh 29.91 in1012.9 mb 0.00 in0.0 mm 0.00 in0.0 mm 0.02 in0.5 mm
11:14 AM 55.8°F13.2°C 46.6°F8.1°C 71% 3.8 mph WSW6.1 kmh WSW 9.6 mph15.4 kmh 29.90 in1012.5 mb 0.00 in0.0 mm 0.00 in0.0 mm 0.02 in0.5 mm
11:19 AM 55.8°F13.2°C 45.3°F7.4°C 68% 3.1 mph SW5.0 kmh SW 9.6 mph15.4 kmh 29.90 in1012.5 mb 0.00 in0.0 mm 0.00 in0.0 mm 0.02 in0.5 mm
11:24 AM 55.9°F13.3°C 45.9°F7.7°C 69% 2.5 mph SW4.0 kmh SW 7.4 mph11.9 kmh 29.90 in1012.5 mb 0.00 in0.0 mm 0.00 in0.0 mm 0.02 in0.5 mm
11:29 AM 56.7°F13.7°C 46.6°F8.1°C 69% 3.8 mph SE6.1 kmh SE 6.3 mph10.1 kmh 29.90 in1012.5 mb 0.00 in0.0 mm 0.00 in0.0 mm 0.02 in0.5 mm
11:34 AM 57.0°F13.9°C 45.9°F7.7°C 66% 4.9 mph SW7.9 kmh SW 8.5 mph13.7 kmh 29.89 in1012.2 mb 0.00 in0.0 mm 0.00 in0.0 mm 0.02 in0.5 mm
11:39 AM 56.5°F13.6°C 44.8°F7.1°C 65% 4.0 mph SSW6.4 kmh SSW 8.5 mph13.7 kmh 29.89 in1012.2 mb 0.00 in0.0 mm 0.00 in0.0 mm 0.02 in0.5 mm
11:44 AM 56.5°F13.6°C 45.3°F7.4°C 66% 3.4 mph SW5.5 kmh SW 9.6 mph15.4 kmh 29.89 in1012.2 mb 0.00 in0.0 mm 0.00 in0.0 mm 0.02 in0.5 mm
11:49 AM 57.0°F13.9°C 47.3°F8.5°C 70% 3.6 mph SE5.8 kmh SE 9.6 mph15.4 kmh 29.89 in1012.2 mb 0.00 in0.0 mm 0.00 in0.0 mm 0.02 in0.5 mm
11:54 AM 57.6°F14.2°C 47.1°F8.4°C 68% 1.3 mph SW2.1 kmh SW 6.3 mph10.1 kmh 29.89 in1012.2 mb 0.00 in0.0 mm 0.00 in0.0 mm 0.02 in0.5 mm
11:59 AM 57.0°F13.9°C 45.0°F7.2°C 64% 6.0 mph SW9.7 kmh SW 10.5 mph16.9 kmh 29.88 in1011.9 mb 0.00 in0.0 mm 0.00 in0.0 mm 0.02 in0.5 mm
12:04 PM 56.7°F13.7°C 44.2°F6.8°C 63% 6.5 mph SSW10.5 kmh SSW 10.5 mph16.9 kmh 29.88 in1011.9 mb 0.00 in0.0 mm 0.00 in0.0 mm 0.02 in0.5 mm
12:09 PM 56.7°F13.7°C 44.6°F7.0°C 64% 8.3 mph WSW13.4 kmh WSW 11.6 mph18.7 kmh 29.88 in1011.9 mb 0.00 in0.0 mm 0.00 in0.0 mm 0.02 in0.5 mm
12:14 PM 56.8°F13.8°C 44.8°F7.1°C 64% 6.3 mph SW10.1 kmh SW 13.9 mph22.4 kmh 29.89 in1012.2 mb 0.00 in0.0 mm 0.00 in0.0 mm 0.02 in0.5 mm
12:19 PM 57.0°F13.9°C 45.0°F7.2°C 64% 5.4 mph SW8.7 kmh SW 10.5 mph16.9 kmh 29.89 in1012.2 mb 0.00 in0.0 mm 0.00 in0.0 mm 0.02 in0.5 mm
12:24 PM 56.8°F13.8°C 44.4°F6.9°C 63% 7.2 mph WSW11.6 kmh WSW 13.9 mph22.4 kmh 29.89 in1012.2 mb 0.00 in0.0 mm 0.00 in0.0 mm 0.02 in0.5 mm
12:29 PM 56.7°F13.7°C 44.6°F7.0°C 64% 5.4 mph SW8.7 kmh SW 10.5 mph16.9 kmh 29.89 in1012.2 mb 0.00 in0.0 mm 0.00 in0.0 mm 0.02 in0.5 mm
12:34 PM 56.5°F13.6°C 43.7°F6.5°C 62% 6.9 mph WSW11.1 kmh WSW 12.8 mph20.6 kmh 29.88 in1011.9 mb 0.00 in0.0 mm 0.00 in0.0 mm 0.02 in0.5 mm
12:39 PM 56.5°F13.6°C 43.7°F6.5°C 62% 6.0 mph SW9.7 kmh SW 11.6 mph18.7 kmh 29.89 in1012.2 mb 0.00 in0.0 mm 0.00 in0.0 mm 0.02 in0.5 mm
12:44 PM 56.8°F13.8°C 45.1°F7.3°C 65% 6.3 mph S10.1 kmh S 13.9 mph22.4 kmh 29.89 in1012.2 mb 0.00 in0.0 mm 0.00 in0.0 mm 0.02 in0.5 mm
12:49 PM 57.0°F13.9°C 45.3°F7.4°C 65% 6.3 mph WSW10.1 kmh WSW 11.6 mph18.7 kmh 29.89 in1012.2 mb 0.00 in0.0 mm 0.00 in0.0 mm 0.02 in0.5 mm
12:54 PM 56.7°F13.7°C 45.0°F7.2°C 65% 7.2 mph WSW11.6 kmh WSW 12.8 mph20.6 kmh 29.89 in1012.2 mb 0.00 in0.0 mm 0.00 in0.0 mm 0.02 in0.5 mm
12:59 PM 56.8°F13.8°C 45.1°F7.3°C 65% 6.9 mph S11.1 kmh S 12.8 mph20.6 kmh 29.89 in1012.2 mb 0.00 in0.0 mm 0.00 in0.0 mm 0.02 in0.5 mm
01:04 PM 56.8°F13.8°C 45.1°F7.3°C 65% 6.0 mph SW9.7 kmh SW 12.8 mph20.6 kmh 29.89 in1012.2 mb 0.00 in0.0 mm 0.00 in0.0 mm 0.02 in0.5 mm
01:09 PM 57.0°F13.9°C 46.6°F8.1°C 68% 6.9 mph SW11.1 kmh SW 11.6 mph18.7 kmh 29.90 in1012.5 mb 0.00 in0.0 mm 0.00 in0.0 mm 0.02 in0.5 mm
01:14 PM 56.8°F13.8°C 46.0°F7.8°C 67% 8.9 mph WSW14.3 kmh WSW 12.8 mph20.6 kmh 29.90 in1012.5 mb 0.00 in0.0 mm 0.00 in0.0 mm 0.02 in0.5 mm
01:19 PM 56.7°F13.7°C 45.5°F7.5°C 66% 9.2 mph SW14.8 kmh SW 15.9 mph25.6 kmh 29.90 in1012.5 mb 0.00 in0.0 mm 0.00 in0.0 mm 0.02 in0.5 mm
01:24 PM 57.0°F13.9°C 46.2°F7.9°C 67% 6.3 mph SW10.1 kmh SW 9.6 mph15.4 kmh 29.89 in1012.2 mb 0.00 in0.0 mm 0.00 in0.0 mm 0.02 in0.5 mm
01:29 PM 56.8°F13.8°C 43.5°F6.4°C 61% 10.3 mph SW16.6 kmh SW 15.9 mph25.6 kmh 29.90 in1012.5 mb 0.00 in0.0 mm 0.00 in0.0 mm 0.02 in0.5 mm
01:34 PM 56.7°F13.7°C 43.7°F6.5°C 62% 4.9 mph S7.9 kmh S 11.6 mph18.7 kmh 29.89 in1012.2 mb 0.00 in0.0 mm 0.00 in0.0 mm 0.02 in0.5 mm
01:39 PM 56.5°F13.6°C 44.4°F6.9°C 64% 6.0 mph S9.7 kmh S 11.6 mph18.7 kmh 29.89 in1012.2 mb 0.00 in0.0 mm 0.00 in0.0 mm 0.02 in0.5 mm
01:44 PM 56.5°F13.6°C 44.4°F6.9°C 64% 7.8 mph SW12.6 kmh SW 11.6 mph18.7 kmh 29.90 in1012.5 mb 0.00 in0.0 mm 0.00 in0.0 mm 0.02 in0.5 mm
01:49 PM 56.3°F13.5°C 44.6°F7.0°C 65% 5.6 mph SSW9.0 kmh SSW 12.8 mph20.6 kmh 29.90 in1012.5 mb 0.00 in0.0 mm 0.00 in0.0 mm 0.02 in0.5 mm
01:54 PM 55.9°F13.3°C 45.1°F7.3°C 67% 4.7 mph SW7.6 kmh SW 11.6 mph18.7 kmh 29.90 in1012.5 mb 0.00 in0.0 mm 0.00 in0.0 mm 0.02 in0.5 mm
01:59 PM 56.5°F13.6°C 46.0°F7.8°C 68% 5.4 mph SSW8.7 kmh SSW 8.5 mph13.7 kmh 29.90 in1012.5 mb 0.00 in0.0 mm 0.00 in0.0 mm 0.02 in0.5 mm
02:04 PM 56.7°F13.7°C 45.9°F7.7°C 67% 8.3 mph WSW13.4 kmh WSW 12.8 mph20.6 kmh 29.90 in1012.5 mb 0.00 in0.0 mm 0.00 in0.0 mm 0.02 in0.5 mm
02:09 PM 56.5°F13.6°C 45.7°F7.6°C 67% 7.4 mph SW11.9 kmh SW 11.6 mph18.7 kmh 29.90 in1012.5 mb 0.00 in0.0 mm 0.00 in0.0 mm 0.02 in0.5 mm
02:14 PM 56.5°F13.6°C 45.7°F7.6°C 67% 9.2 mph SW14.8 kmh SW 14.8 mph23.8 kmh 29.91 in1012.9 mb 0.00 in0.0 mm 0.00 in0.0 mm 0.02 in0.5 mm
02:19 PM 56.1°F13.4°C 45.0°F7.2°C 66% 4.9 mph SW7.9 kmh SW 13.9 mph22.4 kmh 29.91 in1012.9 mb 0.00 in0.0 mm 0.00 in0.0 mm 0.02 in0.5 mm
02:24 PM 56.3°F13.5°C 45.9°F7.7°C 68% 6.5 mph SW10.5 kmh SW 11.6 mph18.7 kmh 29.91 in1012.9 mb 0.00 in0.0 mm 0.00 in0.0 mm 0.02 in0.5 mm
02:29 PM 56.1°F13.4°C 46.4°F8.0°C 70% 4.3 mph SW6.9 kmh SW 9.6 mph15.4 kmh 29.91 in1012.9 mb 0.00 in0.0 mm 0.00 in0.0 mm 0.02 in0.5 mm
02:34 PM 55.9°F13.3°C 45.5°F7.5°C 68% 6.9 mph S11.1 kmh S 11.6 mph18.7 kmh 29.91 in1012.9 mb 0.00 in0.0 mm 0.00 in0.0 mm 0.02 in0.5 mm
02:39 PM 55.8°F13.2°C 45.7°F7.6°C 69% 3.4 mph SSW5.5 kmh SSW 9.6 mph15.4 kmh 29.91 in1012.9 mb 0.00 in0.0 mm 0.00 in0.0 mm 0.02 in0.5 mm
02:44 PM 55.9°F13.3°C 45.9°F7.7°C 69% 4.5 mph SW7.2 kmh SW 9.6 mph15.4 kmh 29.91 in1012.9 mb 0.00 in0.0 mm 0.00 in0.0 mm 0.02 in0.5 mm
02:49 PM 56.1°F13.4°C 45.7°F7.6°C 68% 6.5 mph SW10.5 kmh SW 10.5 mph16.9 kmh 29.92 in1013.2 mb 0.00 in0.0 mm 0.00 in0.0 mm 0.02 in0.5 mm
02:54 PM 55.9°F13.3°C 45.5°F7.5°C 68% 4.9 mph W7.9 kmh W 13.9 mph22.4 kmh 29.92 in1013.2 mb 0.00 in0.0 mm 0.00 in0.0 mm 0.02 in0.5 mm
02:59 PM 56.1°F13.4°C 45.7°F7.6°C 68% 5.6 mph SW9.0 kmh SW 10.5 mph16.9 kmh 29.91 in1012.9 mb 0.00 in0.0 mm 0.00 in0.0 mm 0.02 in0.5 mm
03:04 PM 56.1°F13.4°C 45.7°F7.6°C 68% 5.6 mph SW9.0 kmh SW 10.5 mph16.9 kmh 29.91 in1012.9 mb 0.00 in0.0 mm 0.00 in0.0 mm 0.02 in0.5 mm
03:09 PM 56.3°F13.5°C 45.5°F7.5°C 67% 7.4 mph S11.9 kmh S 12.8 mph20.6 kmh 29.91 in1012.9 mb 0.00 in0.0 mm 0.00 in0.0 mm 0.02 in0.5 mm
03:14 PM 55.9°F13.3°C 45.1°F7.3°C 67% 6.0 mph SW9.7 kmh SW 10.5 mph16.9 kmh 29.91 in1012.9 mb 0.00 in0.0 mm 0.00 in0.0 mm 0.02 in0.5 mm
03:19 PM 56.1°F13.4°C 45.3°F7.4°C 67% 6.5 mph SW10.5 kmh SW 11.6 mph18.7 kmh 29.91 in1012.9 mb 0.00 in0.0 mm 0.00 in0.0 mm 0.02 in0.5 mm
03:24 PM 55.8°F13.2°C 45.3°F7.4°C 68% 4.7 mph SW7.6 kmh SW 10.5 mph16.9 kmh 29.91 in1012.9 mb 0.00 in0.0 mm 0.00 in0.0 mm 0.02 in0.5 mm
03:29 PM 55.6°F13.1°C 45.5°F7.5°C 69% 6.0 mph SW9.7 kmh SW 11.6 mph18.7 kmh 29.91 in1012.9 mb 0.00 in0.0 mm 0.00 in0.0 mm 0.02 in0.5 mm
03:34 PM 55.6°F13.1°C 45.5°F7.5°C 69% 7.2 mph SSW11.6 kmh SSW 10.5 mph16.9 kmh 29.91 in1012.9 mb 0.00 in0.0 mm 0.00 in0.0 mm 0.02 in0.5 mm
03:39 PM 55.4°F13.0°C 45.9°F7.7°C 70% 3.4 mph SW5.5 kmh SW 9.6 mph15.4 kmh 29.92 in1013.2 mb 0.00 in0.0 mm 0.00 in0.0 mm 0.02 in0.5 mm
03:44 PM 55.4°F13.0°C 45.9°F7.7°C 70% 3.4 mph SSE5.5 kmh SSE 9.6 mph15.4 kmh 29.92 in1013.2 mb 0.00 in0.0 mm 0.00 in0.0 mm 0.02 in0.5 mm
03:49 PM 55.4°F13.0°C 45.9°F7.7°C 70% 4.0 mph SW6.4 kmh SW 6.3 mph10.1 kmh 29.92 in1013.2 mb 0.00 in0.0 mm 0.00 in0.0 mm 0.02 in0.5 mm
03:54 PM 55.2°F12.9°C 46.0°F7.8°C 71% 2.7 mph SSW4.3 kmh SSW 5.4 mph8.7 kmh 29.92 in1013.2 mb 0.00 in0.0 mm 0.00 in0.0 mm 0.02 in0.5 mm
03:59 PM 55.0°F12.8°C 45.5°F7.5°C 70% 6.3 mph SSW10.1 kmh SSW 8.5 mph13.7 kmh 29.92 in1013.2 mb 0.00 in0.0 mm 0.00 in0.0 mm 0.02 in0.5 mm
04:04 PM 55.2°F12.9°C 45.7°F7.6°C 70% 3.4 mph SW5.5 kmh SW 9.6 mph15.4 kmh 29.92 in1013.2 mb 0.00 in0.0 mm 0.00 in0.0 mm 0.02 in0.5 mm
04:09 PM 55.0°F12.8°C 45.5°F7.5°C 70% 5.4 mph SW8.7 kmh SW 8.5 mph13.7 kmh 29.92 in1013.2 mb 0.00 in0.0 mm 0.00 in0.0 mm 0.02 in0.5 mm
04:14 PM 54.9°F12.7°C 45.7°F7.6°C 71% 4.9 mph SW7.9 kmh SW 8.5 mph13.7 kmh 29.92 in1013.2 mb 0.00 in0.0 mm 0.00 in0.0 mm 0.02 in0.5 mm
04:19 PM 54.5°F12.5°C 45.3°F7.4°C 71% 2.9 mph SW4.7 kmh SW 6.3 mph10.1 kmh 29.91 in1012.9 mb 0.00 in0.0 mm 0.00 in0.0 mm 0.02 in0.5 mm
04:24 PM 54.3°F12.4°C 45.5°F7.5°C 72% 1.8 mph SW2.9 kmh SW 5.4 mph8.7 kmh 29.91 in1012.9 mb 0.00 in0.0 mm 0.00 in0.0 mm 0.02 in0.5 mm
04:29 PM 54.3°F12.4°C 45.5°F7.5°C 72% 2.2 mph SW3.5 kmh SW 5.4 mph8.7 kmh 29.91 in1012.9 mb 0.00 in0.0 mm 0.00 in0.0 mm 0.02 in0.5 mm
04:34 PM 54.1°F12.3°C 45.3°F7.4°C 72% 2.5 mph SW4.0 kmh SW 7.4 mph11.9 kmh 29.91 in1012.9 mb 0.00 in0.0 mm 0.00 in0.0 mm 0.02 in0.5 mm
04:39 PM 54.0°F12.2°C 45.1°F7.3°C 72% 3.4 mph SSW5.5 kmh SSW 7.4 mph11.9 kmh 29.91 in1012.9 mb 0.00 in0.0 mm 0.00 in0.0 mm 0.02 in0.5 mm
04:44 PM 54.0°F12.2°C 45.5°F7.5°C 73% 2.2 mph SW3.5 kmh SW 5.4 mph8.7 kmh 29.91 in1012.9 mb 0.00 in0.0 mm 0.00 in0.0 mm 0.02 in0.5 mm
04:49 PM 53.8°F12.1°C 45.7°F7.6°C 74% 0.4 mph SSE0.6 kmh SSE 5.4 mph8.7 kmh 29.91 in1012.9 mb 0.00 in0.0 mm 0.00 in0.0 mm 0.02 in0.5 mm
04:54 PM 53.6°F12.0°C 45.5°F7.5°C 74% 1.1 mph SW1.8 kmh SW 2.0 mph3.2 kmh 29.91 in1012.9 mb 0.00 in0.0 mm 0.00 in0.0 mm 0.02 in0.5 mm
04:59 PM 53.2°F11.8°C 45.1°F7.3°C 74% 0.4 mph SSW0.6 kmh SSW 2.0 mph3.2 kmh 29.91 in1012.9 mb 0.00 in0.0 mm 0.00 in0.0 mm 0.02 in0.5 mm
05:04 PM 53.1°F11.7°C 45.3°F7.4°C 75% 0.9 mph SSW1.4 kmh SSW 3.1 mph5.0 kmh 29.91 in1012.9 mb 0.00 in0.0 mm 0.00 in0.0 mm 0.02 in0.5 mm
05:09 PM 52.9°F11.6°C 45.1°F7.3°C 75% 0.9 mph SSW1.4 kmh SSW 3.1 mph5.0 kmh 29.91 in1012.9 mb 0.00 in0.0 mm 0.00 in0.0 mm 0.02 in0.5 mm
05:14 PM 52.9°F11.6°C 45.1°F7.3°C 75% 0.9 mph S1.4 kmh S 4.3 mph6.9 kmh 29.91 in1012.9 mb 0.00 in0.0 mm 0.00 in0.0 mm 0.02 in0.5 mm
05:19 PM 52.5°F11.4°C 45.1°F7.3°C 76% 0.9 mph SE1.4 kmh SE 2.0 mph3.2 kmh 29.91 in1012.9 mb 0.00 in0.0 mm 0.00 in0.0 mm 0.02 in0.5 mm
05:24 PM 52.5°F11.4°C 45.1°F7.3°C 76% 1.8 mph SSE2.9 kmh SSE 3.1 mph5.0 kmh 29.91 in1012.9 mb 0.00 in0.0 mm 0.00 in0.0 mm 0.02 in0.5 mm
05:29 PM 52.3°F11.3°C 45.0°F7.2°C 76% 0.4 mph S0.6 kmh S 3.1 mph5.0 kmh 29.91 in1012.9 mb 0.00 in0.0 mm 0.00 in0.0 mm 0.02 in0.5 mm
05:34 PM 52.3°F11.3°C 45.3°F7.4°C 77% 0.7 mph SW1.1 kmh SW 4.3 mph6.9 kmh 29.91 in1012.9 mb 0.00 in0.0 mm 0.00 in0.0 mm 0.02 in0.5 mm
05:39 PM 52.2°F11.2°C 45.1°F7.3°C 77% 0.4 mph S0.6 kmh S 1.1 mph1.8 kmh 29.91 in1012.9 mb 0.00 in0.0 mm 0.00 in0.0 mm 0.02 in0.5 mm
05:44 PM 52.0°F11.1°C 45.0°F7.2°C 77% 0.4 mph SE0.6 kmh SE 2.0 mph3.2 kmh 29.92 in1013.2 mb 0.00 in0.0 mm 0.00 in0.0 mm 0.02 in0.5 mm
05:49 PM 52.0°F11.1°C 45.3°F7.4°C 78% 0.2 mph SSE0.3 kmh SSE 3.1 mph5.0 kmh 29.92 in1013.2 mb 0.00 in0.0 mm 0.00 in0.0 mm 0.02 in0.5 mm
05:54 PM 51.8°F11.0°C 45.1°F7.3°C 78% 0.4 mph SE0.6 kmh SE 2.0 mph3.2 kmh 29.92 in1013.2 mb 0.00 in0.0 mm 0.00 in0.0 mm 0.02 in0.5 mm
05:59 PM 51.6°F10.9°C 45.3°F7.4°C 79% 1.1 mph SSE1.8 kmh SSE 3.1 mph5.0 kmh 29.92 in1013.2 mb 0.00 in0.0 mm 0.00 in0.0 mm 0.02 in0.5 mm
06:04 PM 51.6°F10.9°C 45.3°F7.4°C 79% 1.3 mph SW2.1 kmh SW 4.3 mph6.9 kmh 29.93 in1013.5 mb 0.00 in0.0 mm 0.00 in0.0 mm 0.02 in0.5 mm
06:09 PM 51.6°F10.9°C 45.3°F7.4°C 79% 0.7 mph ESE1.1 kmh ESE 2.0 mph3.2 kmh 29.93 in1013.5 mb 0.00 in0.0 mm 0.00 in0.0 mm 0.02 in0.5 mm
06:14 PM 51.6°F10.9°C 45.3°F7.4°C 79% 1.3 mph SE2.1 kmh SE 2.0 mph3.2 kmh 29.93 in1013.5 mb 0.00 in0.0 mm 0.00 in0.0 mm 0.02 in0.5 mm
06:19 PM 51.6°F10.9°C 45.3°F7.4°C 79% 0.9 mph SE1.4 kmh SE 3.1 mph5.0 kmh 29.93 in1013.5 mb 0.00 in0.0 mm 0.00 in0.0 mm 0.02 in0.5 mm
06:24 PM 51.4°F10.8°C 45.5°F7.5°C 80% 0.4 mph SE0.6 kmh SE 2.0 mph3.2 kmh 29.93 in1013.5 mb 0.00 in0.0 mm 0.00 in0.0 mm 0.02 in0.5 mm
06:29 PM 51.4°F10.8°C 45.5°F7.5°C 80% 0.2 mph SE0.3 kmh SE 1.1 mph1.8 kmh 29.93 in1013.5 mb 0.00 in0.0 mm 0.00 in0.0 mm 0.02 in0.5 mm
06:34 PM 51.1°F10.6°C 45.1°F7.3°C 80% Calm Calm 1.1 mph1.8 kmh 29.93 in1013.5 mb 0.00 in0.0 mm 0.00 in0.0 mm 0.02 in0.5 mm
06:39 PM 50.9°F10.5°C 45.3°F7.4°C 81% Calm Calm 2.0 mph3.2 kmh 29.94 in1013.9 mb 0.00 in0.0 mm 0.00 in0.0 mm 0.02 in0.5 mm
06:44 PM 50.5°F10.3°C 45.0°F7.2°C 81% Calm Calm 1.1 mph1.8 kmh 29.94 in1013.9 mb 0.00 in0.0 mm 0.00 in0.0 mm 0.02 in0.5 mm
06:49 PM 50.4°F10.2°C 45.1°F7.3°C 82% Calm Calm -- 29.95 in1014.2 mb 0.00 in0.0 mm 0.00 in0.0 mm 0.02 in0.5 mm
06:54 PM 49.8°F9.9°C 44.6°F7.0°C 82% Calm Calm -- 29.95 in1014.2 mb 0.00 in0.0 mm 0.00 in0.0 mm 0.02 in0.5 mm
06:59 PM 49.3°F9.6°C 44.1°F6.7°C 82% Calm Calm -- 29.95 in1014.2 mb 0.00 in0.0 mm 0.00 in0.0 mm 0.02 in0.5 mm
07:04 PM 49.1°F9.5°C 44.2°F6.8°C 83% Calm Calm -- 29.95 in1014.2 mb 0.00 in0.0 mm 0.00 in0.0 mm 0.02 in0.5 mm
07:09 PM 48.7°F9.3°C 44.1°F6.7°C 84% Calm Calm -- 29.96 in1014.6 mb 0.00 in0.0 mm 0.00 in0.0 mm 0.02 in0.5 mm
07:14 PM 48.7°F9.3°C 44.4°F6.9°C 85% Calm Calm -- 29.96 in1014.6 mb 0.00 in0.0 mm 0.00 in0.0 mm 0.02 in0.5 mm
07:19 PM 48.7°F9.3°C 44.4°F6.9°C 85% Calm Calm -- 29.96 in1014.6 mb 0.00 in0.0 mm 0.00 in0.0 mm 0.02 in0.5 mm
07:24 PM 48.6°F9.2°C 44.6°F7.0°C 86% Calm Calm -- 29.96 in1014.6 mb 0.00 in0.0 mm 0.00 in0.0 mm 0.02 in0.5 mm
07:29 PM 48.6°F9.2°C 44.6°F7.0°C 86% Calm Calm -- 29.97 in1014.9 mb 0.00 in0.0 mm 0.00 in0.0 mm 0.02 in0.5 mm
07:34 PM 48.6°F9.2°C 44.6°F7.0°C 86% Calm Calm -- 29.97 in1014.9 mb 0.00 in0.0 mm 0.00 in0.0 mm 0.02 in0.5 mm
07:39 PM 48.6°F9.2°C 44.8°F7.1°C 87% Calm Calm -- 29.97 in1014.9 mb 0.00 in0.0 mm 0.00 in0.0 mm 0.02 in0.5 mm
07:44 PM 48.6°F9.2°C 44.8°F7.1°C 87% Calm Calm -- 29.97 in1014.9 mb 0.00 in0.0 mm 0.00 in0.0 mm 0.02 in0.5 mm
07:49 PM 48.6°F9.2°C 44.8°F7.1°C 87% Calm Calm -- 29.97 in1014.9 mb 0.00 in0.0 mm 0.00 in0.0 mm 0.02 in0.5 mm
07:54 PM 48.4°F9.1°C 44.4°F6.9°C 86% Calm Calm -- 29.97 in1014.9 mb 0.00 in0.0 mm 0.00 in0.0 mm 0.02 in0.5 mm
07:59 PM 48.2°F9.0°C 44.6°F7.0°C 87% Calm Calm -- 29.97 in1014.9 mb 0.00 in0.0 mm 0.00 in0.0 mm 0.02 in0.5 mm
08:04 PM 48.0°F8.9°C 44.4°F6.9°C 87% Calm Calm -- 29.97 in1014.9 mb 0.00 in0.0 mm 0.00 in0.0 mm 0.02 in0.5 mm
08:09 PM 48.0°F8.9°C 44.4°F6.9°C 87% Calm Calm -- 29.97 in1014.9 mb 0.00 in0.0 mm 0.00 in0.0 mm 0.02 in0.5 mm
08:14 PM 48.0°F8.9°C 44.6°F7.0°C 88% Calm Calm -- 29.96 in1014.6 mb 0.00 in0.0 mm 0.00 in0.0 mm 0.02 in0.5 mm
08:19 PM 48.0°F8.9°C 44.6°F7.0°C 88% Calm Calm -- 29.97 in1014.9 mb 0.00 in0.0 mm 0.00 in0.0 mm 0.02 in0.5 mm
08:24 PM 48.4°F9.1°C 45.0°F7.2°C 88% Calm Calm -- 29.97 in1014.9 mb 0.00 in0.0 mm 0.00 in0.0 mm 0.02 in0.5 mm
08:29 PM 48.4°F9.1°C 45.0°F7.2°C 88% Calm Calm -- 29.97 in1014.9 mb 0.00 in0.0 mm 0.00 in0.0 mm 0.02 in0.5 mm
08:34 PM 48.6°F9.2°C 45.1°F7.3°C 88% Calm Calm -- 29.97 in1014.9 mb 0.00 in0.0 mm 0.00 in0.0 mm 0.02 in0.5 mm
08:39 PM 48.7°F9.3°C 45.3°F7.4°C 88% Calm Calm 1.1 mph1.8 kmh 29.97 in1014.9 mb 0.00 in0.0 mm 0.00 in0.0 mm 0.02 in0.5 mm
08:44 PM 48.9°F9.4°C 45.5°F7.5°C 88% Calm Calm -- 29.98 in1015.2 mb 0.00 in0.0 mm 0.00 in0.0 mm 0.02 in0.5 mm
08:49 PM 49.1°F9.5°C 45.7°F7.6°C 88% Calm Calm -- 29.98 in1015.2 mb 0.00 in0.0 mm 0.00 in0.0 mm 0.02 in0.5 mm
08:54 PM 49.3°F9.6°C 45.9°F7.7°C 88% Calm Calm -- 29.98 in1015.2 mb 0.00 in0.0 mm 0.00 in0.0 mm 0.02 in0.5 mm
08:59 PM 49.5°F9.7°C 46.0°F7.8°C 88% Calm Calm -- 29.98 in1015.2 mb 0.00 in0.0 mm 0.00 in0.0 mm 0.02 in0.5 mm
09:04 PM 49.6°F9.8°C 46.2°F7.9°C 88% Calm Calm -- 29.98 in1015.2 mb 0.00 in0.0 mm 0.00 in0.0 mm 0.02 in0.5 mm
09:09 PM 49.8°F9.9°C 46.0°F7.8°C 87% Calm Calm -- 29.98 in1015.2 mb 0.00 in0.0 mm 0.00 in0.0 mm 0.02 in0.5 mm
09:14 PM 50.0°F10.0°C 46.2°F7.9°C 87% Calm Calm -- 29.98 in1015.2 mb 0.00 in0.0 mm 0.00 in0.0 mm 0.02 in0.5 mm
09:19 PM 50.2°F10.1°C 46.2°F7.9°C 86% Calm Calm 2.0 mph3.2 kmh 29.98 in1015.2 mb 0.00 in0.0 mm 0.00 in0.0 mm 0.02 in0.5 mm
09:24 PM 50.4°F10.2°C 46.4°F8.0°C 86% 0.4 mph SE0.6 kmh SE 3.1 mph5.0 kmh 29.98 in1015.2 mb 0.00 in0.0 mm 0.00 in0.0 mm 0.02 in0.5 mm
09:29 PM 50.7°F10.4°C 46.4°F8.0°C 85% 0.7 mph SE1.1 kmh SE 2.0 mph3.2 kmh 29.99 in1015.6 mb 0.00 in0.0 mm 0.00 in0.0 mm 0.02 in0.5 mm
09:34 PM 50.9°F10.5°C 46.6°F8.1°C 85% 0.4 mph SE0.6 kmh SE 3.1 mph5.0 kmh 29.99 in1015.6 mb 0.00 in0.0 mm 0.00 in0.0 mm 0.02 in0.5 mm
09:39 PM 51.1°F10.6°C 46.4°F8.0°C 84% 0.2 mph SE0.3 kmh SE 3.1 mph5.0 kmh 30.00 in1015.9 mb 0.00 in0.0 mm 0.00 in0.0 mm 0.02 in0.5 mm
09:44 PM 51.3°F10.7°C 46.6°F8.1°C 84% Calm Calm 1.1 mph1.8 kmh 30.00 in1015.9 mb 0.00 in0.0 mm 0.00 in0.0 mm 0.02 in0.5 mm
09:49 PM 51.3°F10.7°C 46.6°F8.1°C 84% 0.2 mph SE0.3 kmh SE 1.1 mph1.8 kmh 30.00 in1015.9 mb 0.00 in0.0 mm 0.00 in0.0 mm 0.02 in0.5 mm
09:54 PM 51.3°F10.7°C 46.2°F7.9°C 83% Calm Calm 1.1 mph1.8 kmh 30.00 in1015.9 mb 0.00 in0.0 mm 0.00 in0.0 mm 0.02 in0.5 mm
09:59 PM 51.3°F10.7°C 46.2°F7.9°C 83% 0.7 mph SE1.1 kmh SE 3.1 mph5.0 kmh 30.00 in1015.9 mb 0.00 in0.0 mm 0.00 in0.0 mm 0.02 in0.5 mm
10:04 PM 51.3°F10.7°C 46.2°F7.9°C 83% 0.7 mph SE1.1 kmh SE 3.1 mph5.0 kmh 30.00 in1015.9 mb 0.00 in0.0 mm 0.00 in0.0 mm 0.02 in0.5 mm
10:09 PM 51.4°F10.8°C 46.4°F8.0°C 83% 0.7 mph SE1.1 kmh SE 2.0 mph3.2 kmh 30.00 in1015.9 mb 0.00 in0.0 mm 0.00 in0.0 mm 0.02 in0.5 mm
10:14 PM 51.4°F10.8°C 46.2°F7.9°C 82% Calm Calm 2.0 mph3.2 kmh 30.00 in1015.9 mb 0.00 in0.0 mm 0.00 in0.0 mm 0.02 in0.5 mm
10:19 PM 51.4°F10.8°C 46.2°F7.9°C 82% Calm Calm -- 30.00 in1015.9 mb 0.00 in0.0 mm 0.00 in0.0 mm 0.02 in0.5 mm
10:24 PM 51.3°F10.7°C 46.0°F7.8°C 82% Calm Calm -- 30.01 in1016.3 mb 0.00 in0.0 mm 0.00 in0.0 mm 0.02 in0.5 mm
10:29 PM 51.3°F10.7°C 46.2°F7.9°C 83% Calm Calm -- 30.01 in1016.3 mb 0.00 in0.0 mm 0.00 in0.0 mm 0.02 in0.5 mm
10:34 PM 51.3°F10.7°C 46.2°F7.9°C 83% Calm Calm 1.1 mph1.8 kmh 30.01 in1016.3 mb 0.00 in0.0 mm 0.00 in0.0 mm 0.02 in0.5 mm
10:39 PM 51.3°F10.7°C 46.2°F7.9°C 83% Calm Calm 1.1 mph1.8 kmh 30.00 in1015.9 mb 0.00 in0.0 mm 0.00 in0.0 mm 0.02 in0.5 mm
10:44 PM 51.3°F10.7°C 46.2°F7.9°C 83% Calm Calm 1.1 mph1.8 kmh 30.01 in1016.3 mb 0.00 in0.0 mm 0.00 in0.0 mm 0.02 in0.5 mm
10:49 PM 51.3°F10.7°C 46.2°F7.9°C 83% 0.2 mph SE0.3 kmh SE 1.1 mph1.8 kmh 30.00 in1015.9 mb 0.00 in0.0 mm 0.00 in0.0 mm 0.02 in0.5 mm
10:54 PM 51.3°F10.7°C 46.2°F7.9°C 83% Calm Calm -- 30.00 in1015.9 mb 0.00 in0.0 mm 0.00 in0.0 mm 0.02 in0.5 mm
10:59 PM 51.3°F10.7°C 46.2°F7.9°C 83% Calm Calm 1.1 mph1.8 kmh 29.99 in1015.6 mb 0.00 in0.0 mm 0.00 in0.0 mm 0.02 in0.5 mm
11:04 PM 51.3°F10.7°C 46.2°F7.9°C 83% Calm Calm -- 30.00 in1015.9 mb 0.00 in0.0 mm 0.00 in0.0 mm 0.02 in0.5 mm
11:09 PM 51.1°F10.6°C 46.0°F7.8°C 83% Calm Calm 1.1 mph1.8 kmh 30.00 in1015.9 mb 0.00 in0.0 mm 0.00 in0.0 mm 0.02 in0.5 mm
11:14 PM 51.3°F10.7°C 46.2°F7.9°C 83% Calm Calm 1.1 mph1.8 kmh 30.00 in1015.9 mb 0.00 in0.0 mm 0.00 in0.0 mm 0.02 in0.5 mm
11:19 PM 51.1°F10.6°C 46.0°F7.8°C 83% Calm Calm -- 29.99 in1015.6 mb 0.00 in0.0 mm 0.00 in0.0 mm 0.02 in0.5 mm
11:24 PM 51.1°F10.6°C 46.0°F7.8°C 83% Calm Calm 1.1 mph1.8 kmh 29.99 in1015.6 mb 0.00 in0.0 mm 0.00 in0.0 mm 0.02 in0.5 mm
11:29 PM 51.1°F10.6°C 46.4°F8.0°C 84% Calm Calm 1.1 mph1.8 kmh 29.99 in1015.6 mb 0.00 in0.0 mm 0.00 in0.0 mm 0.02 in0.5 mm
11:34 PM 51.1°F10.6°C 46.0°F7.8°C 83% Calm Calm -- 29.99 in1015.6 mb 0.00 in0.0 mm 0.00 in0.0 mm 0.02 in0.5 mm
11:40 PM 50.9°F10.5°C 46.2°F7.9°C 84% Calm Calm 1.1 mph1.8 kmh 29.99 in1015.6 mb 0.00 in0.0 mm 0.00 in0.0 mm 0.02 in0.5 mm
11:45 PM 50.9°F10.5°C 46.2°F7.9°C 84% Calm Calm 1.1 mph1.8 kmh 29.98 in1015.2 mb 0.00 in0.0 mm 0.00 in0.0 mm 0.02 in0.5 mm
11:50 PM 50.9°F10.5°C 46.2°F7.9°C 84% Calm Calm 1.1 mph1.8 kmh 29.98 in1015.2 mb 0.00 in0.0 mm 0.00 in0.0 mm 0.02 in0.5 mm
11:55 PM 50.9°F10.5°C 46.2°F7.9°C 84% Calm Calm 1.1 mph1.8 kmh 29.98 in1015.2 mb 0.00 in0.0 mm 0.00 in0.0 mm 0.02 in0.5 mm